Time;durP1;ratioP1;P1;durP2;ratioP2;P2;SDS_P1;SDS_P2;PMS_P1;PMS_P2;Temp;Humidity;BMP_temperature;BMP_pressure;BME280_temperature;BME280_humidity;BME280_pressure;Samples;Min_cycle;Max_cycle;Signal;HPM_P1;HPM_P2
2022/04/23 00:02:20;;;;;;;8.15;7.40;;;;;;;10.72;62.56;95371.47;5015377;28;20053;-77
2022/04/23 00:04:48;;;;;;;8.25;7.40;;;;;;;10.67;62.62;95373.09;5015320;28;20108;-77
2022/04/23 00:07:16;;;;;;;8.98;8.15;;;;;;;10.64;62.84;95373.53;5014346;28;20054;-77
2022/04/23 00:09:43;;;;;;;9.13;8.23;;;;;;;10.61;63.07;95374.75;5015155;28;20052;-77
2022/04/23 00:12:11;;;;;;;8.52;7.63;;;;;;;10.60;63.19;95370.53;5015265;28;20455;-78
2022/04/23 00:14:38;;;;;;;9.90;8.10;;;;;;;10.61;63.29;95369.53;5014993;28;20061;-77
2022/04/23 00:17:08;;;;;;;8.93;7.68;;;;;;;10.61;63.50;95369.53;5014230;28;20132;-78
2022/04/23 00:19:36;;;;;;;8.95;8.05;;;;;;;10.62;63.43;95365.91;5014552;28;20519;-77
2022/04/23 00:22:04;;;;;;;9.68;8.45;;;;;;;10.63;63.42;95367.53;5015100;28;20050;-77
2022/04/23 00:24:31;;;;;;;9.55;8.55;;;;;;;10.63;63.54;95377.97;5014664;28;20053;-78
2022/04/23 00:26:59;;;;;;;10.27;9.27;;;;;;;10.60;63.55;95373.16;5014075;28;20056;-77
2022/04/23 00:29:26;;;;;;;9.20;8.30;;;;;;;10.55;63.60;95375.59;5014569;28;20046;-78
2022/04/23 00:31:54;;;;;;;9.93;8.57;;;;;;;10.52;63.71;95376.03;5014655;28;20533;-78
2022/04/23 00:34:23;;;;;;;8.82;7.85;;;;;;;10.49;63.97;95379.88;5015119;28;20061;-78
2022/04/23 00:36:50;;;;;;;8.35;7.55;;;;;;;10.51;63.65;95377.03;5019848;28;20057;-77
2022/04/23 00:39:18;;;;;;;9.18;8.27;;;;;;;10.54;63.66;95378.41;5018136;28;20041;-77
2022/04/23 00:41:46;;;;;;;9.63;8.68;;;;;;;10.54;63.53;95384.44;5018473;28;20050;-78
2022/04/23 00:44:15;;;;;;;8.50;7.70;;;;;;;10.57;63.51;95383.22;5015447;28;20050;-78
2022/04/23 00:46:43;;;;;;;9.00;8.10;;;;;;;10.57;63.25;95389.22;5013817;28;20052;-78
2022/04/23 00:49:10;;;;;;;10.38;9.40;;;;;;;10.52;63.09;95382.03;5014526;28;20297;-77
2022/04/23 00:51:41;;;;;;;10.32;7.55;;;;;;;10.49;63.63;95381.66;5014548;28;20050;-77
2022/04/23 00:54:10;;;;;;;9.18;8.27;;;;;;;10.51;63.36;95384.84;5014308;28;20050;-78
2022/04/23 00:56:39;;;;;;;10.45;9.27;;;;;;;10.51;62.93;95390.06;5013434;28;20583;-78
2022/04/23 00:59:08;;;;;;;9.57;8.60;;;;;;;10.50;62.84;95384.06;5013846;28;20415;-77
2022/04/23 01:01:36;;;;;;;11.20;9.98;;;;;;;10.46;62.85;95389.91;5014014;28;20419;-77
2022/04/23 01:04:05;;;;;;;9.45;8.48;;;;;;;10.45;63.18;95385.69;5014215;28;20046;-78
2022/04/23 01:06:34;;;;;;;10.68;9.57;;;;;;;10.47;62.72;95386.28;5028231;28;20114;-77
2022/04/23 01:09:04;;;;;;;10.10;9.05;;;;;;;10.47;62.90;95389.72;5037880;28;20050;-77
2022/04/23 01:11:32;;;;;;;10.40;9.35;;;;;;;10.48;62.54;95386.06;5018653;28;20432;-78
2022/04/23 01:14:00;;;;;;;10.77;9.52;;;;;;;10.48;62.70;95390.50;5013999;28;20080;-77
2022/04/23 01:16:28;;;;;;;11.05;9.95;;;;;;;10.50;62.34;95391.09;5013369;28;20060;-77
2022/04/23 01:18:56;;;;;;;11.55;10.35;;;;;;;10.48;62.52;95385.28;5013934;28;20046;-77
2022/04/23 01:21:26;;;;;;;11.32;10.13;;;;;;;10.46;62.66;95387.28;5014288;28;20057;-77
2022/04/23 01:23:54;;;;;;;14.73;11.25;;;;;;;10.40;62.56;95393.34;5014125;28;20424;-77
2022/04/23 01:26:27;;;;;;;12.18;10.60;;;;;;;10.31;63.07;95385.78;5013248;28;20061;-78
2022/04/23 01:28:55;;;;;;;11.93;10.73;;;;;;;10.26;62.91;95388.19;5013883;28;20080;-77
2022/04/23 01:31:23;;;;;;;11.73;10.52;;;;;;;10.21;62.79;95395.84;5013847;28;20049;-77
2022/04/23 01:33:50;;;;;;;11.75;10.55;;;;;;;10.15;62.82;95395.88;5013759;28;20049;-77
2022/04/23 01:36:18;;;;;;;12.65;10.88;;;;;;;10.09;63.16;95397.50;5012259;28;20045;-77
2022/04/23 01:38:47;;;;;;;11.63;10.48;;;;;;;10.09;63.59;95407.91;5013471;28;20065;-77
2022/04/23 01:41:15;;;;;;;11.13;9.95;;;;;;;10.11;63.13;95396.28;5013587;28;20056;-77
2022/04/23 01:43:42;;;;;;;12.10;10.80;;;;;;;10.13;63.12;95397.88;5013504;28;20064;-77
2022/04/23 01:46:10;;;;;;;10.77;9.70;;;;;;;10.14;62.85;95400.25;5012909;28;20046;-77
2022/04/23 01:48:38;;;;;;;11.55;10.13;;;;;;;10.14;62.73;95389.84;5013588;28;20488;-78
2022/04/23 01:51:06;;;;;;;11.45;10.35;;;;;;;10.14;62.97;95389.06;5013634;28;20050;-78
2022/04/23 01:53:33;;;;;;;10.80;9.45;;;;;;;10.16;63.02;95398.25;5012923;28;20171;-80
2022/04/23 01:56:02;;;;;;;11.30;10.10;;;;;;;10.16;62.75;95393.03;5012470;28;20065;-80
2022/04/23 01:58:29;;;;;;;11.80;10.55;;;;;;;10.13;62.78;95385.66;5012363;28;20539;-80
2022/04/23 02:00:58;;;;;;;11.50;10.30;;;;;;;10.13;62.96;95390.88;5013002;28;20053;-80
2022/04/23 02:03:26;;;;;;;11.55;10.35;;;;;;;10.18;62.85;95391.03;5012764;28;20045;-80
2022/04/23 02:05:54;;;;;;;11.82;10.57;;;;;;;10.19;62.82;95390.03;5011881;28;20064;-80
2022/04/23 02:08:21;;;;;;;12.43;11.02;;;;;;;10.17;62.78;95392.03;5012588;28;20053;-80
2022/04/23 02:10:49;;;;;;;11.48;10.27;;;;;;;10.14;62.96;95392.44;5012794;28;20056;-80
2022/04/23 02:13:18;;;;;;;12.38;10.70;;;;;;;10.14;63.04;95389.84;5012574;28;20057;-80
2022/04/23 02:15:45;;;;;;;11.73;10.55;;;;;;;10.16;62.95;95389.66;5012056;28;20050;-80
2022/04/23 02:18:14;;;;;;;11.98;10.70;;;;;;;10.15;63.14;95390.66;5012374;28;20057;-80
2022/04/23 02:20:41;;;;;;;12.20;10.95;;;;;;;10.13;63.09;95383.03;5012303;28;20045;-80
2022/04/23 02:23:09;;;;;;;12.00;10.80;;;;;;;10.09;62.96;95392.28;5012529;28;20049;-80
2022/04/23 02:25:36;;;;;;;13.23;11.30;;;;;;;10.04;63.34;95384.31;5012534;28;20080;-80
2022/04/23 02:28:04;;;;;;;11.70;10.50;;;;;;;9.96;63.53;95387.13;5011897;28;20526;-80
2022/04/23 02:30:34;;;;;;;13.88;11.65;;;;;;;9.93;63.91;95382.31;5012436;28;20049;-80
2022/04/23 02:33:02;;;;;;;11.88;10.48;;;;;;;9.94;63.69;95389.16;5012097;28;20056;-80
2022/04/23 02:35:29;;;;;;;12.38;11.07;;;;;;;9.93;63.73;95380.53;5012387;28;20253;-80
2022/04/23 02:37:57;;;;;;;11.68;10.48;;;;;;;9.93;63.80;95383.16;5011683;28;20066;-80
2022/04/23 02:40:25;;;;;;;11.38;10.18;;;;;;;9.96;64.02;95384.53;5012453;28;20073;-78
2022/04/23 02:42:53;;;;;;;10.85;9.75;;;;;;;9.95;63.54;95377.72;5012622;28;20439;-78
2022/04/23 02:45:21;;;;;;;12.02;10.75;;;;;;;9.87;63.98;95373.56;5012716;28;20389;-78
2022/04/23 02:47:51;;;;;;;12.18;10.90;;;;;;;9.82;64.26;95379.38;5015468;28;20056;-78
2022/04/23 02:50:26;;;;;;;12.02;10.82;;;;;;;9.79;64.50;95377.16;5016827;28;20053;-78
2022/04/23 02:52:55;;;;;;;12.88;11.57;;;;;;;9.74;64.32;95384.03;5016463;28;20060;-77
2022/04/23 02:55:24;;;;;;;13.52;12.13;;;;;;;9.68;64.42;95385.63;5016338;28;20057;-77
2022/04/23 02:57:52;;;;;;;13.30;11.73;;;;;;;9.63;64.72;95375.84;5015475;28;20053;-78
2022/04/23 03:00:20;;;;;;;14.80;12.30;;;;;;;9.54;64.84;95373.69;5016389;28;20480;-77
2022/04/23 03:02:48;;;;;;;13.55;12.15;;;;;;;9.48;64.88;95373.47;5016072;28;20054;-77
2022/04/23 03:05:17;;;;;;;12.82;11.02;;;;;;;9.46;65.45;95383.28;5016398;28;20103;-77
2022/04/23 03:07:45;;;;;;;13.15;11.75;;;;;;;9.43;65.31;95375.09;5015385;28;20054;-77
2022/04/23 03:10:15;;;;;;;13.00;11.70;;;;;;;9.40;65.29;95384.13;5015973;28;20053;-78
2022/04/23 03:12:43;;;;;;;13.20;11.80;;;;;;;9.34;65.61;95391.94;5015894;28;20050;-77
2022/04/23 03:15:13;;;;;;;11.88;10.68;;;;;;;9.30;65.90;95381.13;5015962;28;20054;-77
2022/04/23 03:17:40;;;;;;;14.75;11.23;;;;;;;9.32;65.62;95392.16;5015723;28;20042;-77
2022/04/23 03:20:09;;;;;;;12.00;10.80;;;;;;;9.32;65.80;95388.75;5015850;28;20058;-78
2022/04/23 03:22:39;;;;;;;11.93;10.68;;;;;;;9.32;65.80;95397.34;5015882;28;20052;-77
2022/04/23 03:25:07;;;;;;;10.85;9.75;;;;;;;9.36;65.81;95393.34;5015539;28;20148;-78
2022/04/23 03:27:35;;;;;;;10.60;9.50;;;;;;;9.43;66.24;95394.13;5015174;28;20065;-77
2022/04/23 03:30:05;;;;;;;10.30;9.23;;;;;;;9.55;65.91;95396.09;5016145;28;20049;-77
2022/04/23 03:32:33;;;;;;;9.20;8.30;;;;;;;9.64;65.50;95397.47;5015983;28;20064;-77
2022/04/23 03:35:00;;;;;;;9.02;8.13;;;;;;;9.74;65.18;95397.03;5015967;28;20054;-78
2022/04/23 03:37:28;;;;;;;8.05;7.25;;;;;;;9.77;64.80;95400.00;5015074;28;20053;-78
2022/04/23 03:39:57;;;;;;;8.27;7.47;;;;;;;9.81;65.01;95401.22;5015972;28;20052;-77
2022/04/23 03:42:25;;;;;;;7.95;7.15;;;;;;;9.85;64.79;95394.59;5015663;28;20061;-77
2022/04/23 03:44:52;;;;;;;8.05;7.25;;;;;;;9.89;64.33;95397.59;5015584;28;20507;-77
2022/04/23 03:47:19;;;;;;;8.55;7.65;;;;;;;9.88;64.66;95398.56;5015034;28;20050;-77
2022/04/23 03:49:47;;;;;;;8.55;7.68;;;;;;;9.87;64.68;95394.38;5015581;28;20042;-78
2022/04/23 03:52:15;;;;;;;8.77;7.32;;;;;;;9.87;64.67;95395.19;5029895;28;20048;-77
2022/04/23 03:54:42;;;;;;;8.25;7.40;;;;;;;9.87;64.88;95397.00;5039669;28;20056;-77
2022/04/23 03:57:11;;;;;;;9.15;7.75;;;;;;;9.92;64.95;95394.56;5021314;28;20046;-77
2022/04/23 03:59:38;;;;;;;8.48;7.65;;;;;;;9.96;64.85;95397.56;5015184;28;20050;-78
2022/04/23 04:02:06;;;;;;;8.52;7.53;;;;;;;9.98;64.58;95395.53;5015160;28;20050;-78
2022/04/23 04:04:34;;;;;;;9.85;8.85;;;;;;;9.94;64.58;95394.34;5015152;28;20050;-77
2022/04/23 04:07:03;;;;;;;10.52;8.98;;;;;;;9.94;64.80;95391.75;5014939;28;20057;-77
2022/04/23 04:09:31;;;;;;;9.70;8.52;;;;;;;9.98;64.88;95393.72;5015736;28;20050;-78
2022/04/23 04:12:06;;;;;;;8.70;7.53;;;;;;;10.02;64.63;95386.31;5015890;28;20046;-77
2022/04/23 04:14:36;;;;;;;8.80;7.90;;;;;;;10.03;64.53;95393.91;5015301;28;20049;-77
2022/04/23 04:17:09;;;;;;;8.95;8.05;;;;;;;10.02;64.61;95386.31;5013480;28;20054;-77
2022/04/23 04:19:37;;;;;;;7.70;6.90;;;;;;;10.04;65.00;95385.09;5015583;28;20550;-77
2022/04/23 04:22:06;;;;;;;8.27;7.47;;;;;;;10.11;64.63;95385.84;5015152;28;20057;-77
2022/04/23 04:24:34;;;;;;;8.45;7.55;;;;;;;10.15;64.33;95383.63;5015049;28;20144;-78
2022/04/23 04:27:03;;;;;;;8.70;7.80;;;;;;;10.15;64.17;95380.25;5014471;28;20136;-78
2022/04/23 04:29:31;;;;;;;9.05;8.07;;;;;;;10.11;64.24;95365.00;5015058;28;20129;-78
2022/04/23 04:32:00;;;;;;;8.30;7.50;;;;;;;10.08;64.42;95370.66;5014827;28;20064;-77
2022/04/23 04:34:29;;;;;;;7.82;7.03;;;;;;;10.00;64.47;95360.47;5014741;28;20054;-78
2022/04/23 04:37:03;;;;;;;9.13;7.05;;;;;;;9.86;65.12;95362.34;5014228;28;20149;-77
2022/04/23 04:39:31;;;;;;;7.85;6.82;;;;;;;9.80;65.01;95362.38;5015877;28;20050;-77
2022/04/23 04:41:59;;;;;;;7.53;6.82;;;;;;;9.73;65.23;95366.78;5023481;28;20052;-80
2022/04/23 04:44:27;;;;;;;8.25;7.45;;;;;;;9.67;65.45;95361.41;5023442;28;20349;-77
2022/04/23 04:46:55;;;;;;;7.68;6.78;;;;;;;9.62;65.73;95353.44;5021467;28;20045;-77
2022/04/23 04:49:24;;;;;;;7.13;6.43;;;;;;;9.56;66.02;95356.06;5024205;28;20054;-77
2022/04/23 04:51:52;;;;;;;7.05;6.35;;;;;;;9.53;65.84;95356.44;5025448;28;20046;-78
2022/04/23 04:54:21;;;;;;;7.70;5.93;;;;;;;9.49;65.88;95356.06;5022560;28;20050;-78
2022/04/23 04:56:49;;;;;;;7.70;6.63;;;;;;;9.48;66.10;95357.06;5014237;28;20092;-77
2022/04/23 04:59:17;;;;;;;6.95;6.13;;;;;;;9.45;65.89;95345.25;5014820;28;20060;-75
2022/04/23 05:01:44;;;;;;;6.97;5.32;;;;;;;9.49;66.23;95345.66;5014157;28;20050;-76
2022/04/23 05:04:12;;;;;;;7.13;6.43;;;;;;;9.54;66.24;95353.66;5014317;28;20049;-77
2022/04/23 05:06:41;;;;;;;6.82;6.13;;;;;;;9.56;66.13;95356.06;5013704;28;20141;-76
2022/04/23 05:09:08;;;;;;;7.10;5.72;;;;;;;9.51;65.76;95354.06;5013239;28;20054;-77
2022/04/23 05:11:36;;;;;;;7.07;6.38;;;;;;;9.45;65.90;95350.47;5013767;28;20046;-77
2022/04/23 05:14:04;;;;;;;8.18;6.32;;;;;;;9.42;66.29;95350.88;5013302;28;20047;-77
2022/04/23 05:16:31;;;;;;;7.00;5.63;;;;;;;9.43;66.32;95357.69;5012839;28;20514;-77
2022/04/23 05:18:59;;;;;;;5.80;5.20;;;;;;;9.43;65.97;95357.69;5013711;28;20046;-77
2022/04/23 05:21:26;;;;;;;6.10;5.50;;;;;;;9.38;65.94;95361.88;5013518;28;20046;-77
2022/04/23 05:23:55;;;;;;;8.55;5.80;;;;;;;9.35;66.11;95357.91;5013552;28;20049;-77
2022/04/23 05:26:23;;;;;;;9.20;5.80;;;;;;;9.36;66.11;95363.88;5012979;28;20060;-77
2022/04/23 05:28:50;;;;;;;6.55;5.90;;;;;;;9.35;66.05;95365.69;5013892;28;20076;-77
2022/04/23 05:31:18;;;;;;;5.80;5.22;;;;;;;9.35;66.24;95370.91;5013646;28;20050;-77
2022/04/23 05:33:45;;;;;;;5.38;4.93;;;;;;;9.41;66.12;95366.69;5013225;28;20050;-77
2022/04/23 05:36:13;;;;;;;6.15;5.45;;;;;;;9.46;65.97;95372.88;5013141;28;20410;-77
2022/04/23 05:38:40;;;;;;;6.10;5.50;;;;;;;9.52;65.93;95375.69;5013596;28;20054;-77
2022/04/23 05:41:09;;;;;;;5.88;5.28;;;;;;;9.56;65.99;95380.28;5013512;28;20046;-77
2022/04/23 05:43:37;;;;;;;7.78;6.15;;;;;;;9.59;65.51;95382.44;5013629;28;20530;-77
2022/04/23 05:46:04;;;;;;;5.20;4.70;;;;;;;9.61;65.62;95384.88;5012844;28;20526;-77
2022/04/23 05:48:32;;;;;;;5.25;4.25;;;;;;;9.58;65.12;95370.47;5013264;28;20078;-77
2022/04/23 05:50:59;;;;;;;5.07;4.20;;;;;;;9.58;65.18;95391.28;5013067;28;20045;-77
2022/04/23 05:53:27;;;;;;;5.20;4.22;;;;;;;9.58;65.10;95390.50;5013430;28;20057;-78
2022/04/23 05:55:56;;;;;;;6.35;4.93;;;;;;;9.58;64.95;95393.09;5012739;28;20057;-77
2022/04/23 05:58:25;;;;;;;6.75;4.88;;;;;;;9.56;64.98;95397.69;5013656;28;20053;-77
2022/04/23 06:00:53;;;;;;;5.43;4.80;;;;;;;9.57;65.07;95404.50;5013376;28;20056;-77
2022/04/23 06:03:20;;;;;;;6.30;4.43;;;;;;;9.57;65.20;95404.50;5013147;28;20096;-77
2022/04/23 06:05:48;;;;;;;5.20;4.70;;;;;;;9.56;65.15;95408.91;5013434;28;20567;-77
2022/04/23 06:08:15;;;;;;;5.60;5.03;;;;;;;9.61;64.88;95410.91;5013682;28;20064;-77
2022/04/23 06:10:43;;;;;;;5.90;4.85;;;;;;;9.60;64.86;95404.06;5024103;28;20459;-78
2022/04/23 06:13:10;;;;;;;4.90;4.38;;;;;;;9.59;64.56;95405.09;5012271;28;20423;-78
2022/04/23 06:15:39;;;;;;;5.20;4.70;;;;;;;9.63;64.94;95414.88;5012133;28;20049;-78
2022/04/23 06:18:07;;;;;;;6.22;4.53;;;;;;;9.67;64.72;95404.88;5010528;28;20058;-78
2022/04/23 06:20:35;;;;;;;5.03;4.53;;;;;;;9.68;64.39;95414.28;5011818;28;20057;-78
2022/04/23 06:23:04;;;;;;;5.57;4.78;;;;;;;9.69;64.55;95408.06;5011981;28;20056;-78
2022/04/23 06:25:32;;;;;;;5.03;4.47;;;;;;;9.67;64.50;95410.09;5011772;28;20129;-78
2022/04/23 06:28:00;;;;;;;5.57;5.05;;;;;;;9.67;64.73;95415.28;5011952;28;20061;-78
2022/04/23 06:30:28;;;;;;;6.90;4.45;;;;;;;9.70;64.50;95413.06;5014031;28;20488;-78
2022/04/23 06:32:56;;;;;;;5.30;4.80;;;;;;;9.71;64.29;95416.47;5012855;28;20046;-78
2022/04/23 06:35:24;;;;;;;5.03;4.53;;;;;;;9.73;64.32;95419.69;5013391;28;20504;-78
2022/04/23 06:37:54;;;;;;;4.97;4.53;;;;;;;9.78;64.50;95419.84;5028864;28;20054;-78
2022/04/23 06:40:21;;;;;;;5.25;4.75;;;;;;;9.83;64.39;95425.25;5036471;28;20032;-78
2022/04/23 06:42:49;;;;;;;5.45;4.88;;;;;;;9.86;64.22;95419.63;5016708;28;20052;-78
2022/04/23 06:45:17;;;;;;;6.85;4.97;;;;;;;9.86;64.11;95440.47;5013558;28;20046;-78
2022/04/23 06:47:44;;;;;;;6.90;4.80;;;;;;;9.86;64.00;95427.44;5012360;28;20045;-78
2022/04/23 06:50:13;;;;;;;5.15;4.53;;;;;;;9.86;63.91;95416.22;5013502;28;20054;-78
2022/04/23 06:52:41;;;;;;;5.95;5.35;;;;;;;9.87;63.88;95420.44;5012785;28;20050;-78
2022/04/23 06:55:08;;;;;;;6.45;5.82;;;;;;;9.87;64.12;95423.03;5012813;28;20046;-78
2022/04/23 06:57:43;;;;;;;6.15;5.40;;;;;;;9.87;64.08;95423.81;5011899;28;20058;-78
2022/04/23 07:00:12;;;;;;;5.18;4.63;;;;;;;9.89;63.85;95418.41;5013221;28;20427;-78
2022/04/23 07:02:40;;;;;;;5.85;4.95;;;;;;;9.95;63.70;95417.59;5012196;28;20052;-78
2022/04/23 07:05:09;;;;;;;5.30;4.80;;;;;;;9.95;63.58;95414.19;5012561;28;20054;-78
2022/04/23 07:07:38;;;;;;;5.53;4.88;;;;;;;9.93;63.61;95424.00;5012022;28;20058;-78
2022/04/23 07:10:06;;;;;;;5.13;4.63;;;;;;;9.87;63.84;95410.00;5012791;28;20061;-78
2022/04/23 07:12:34;;;;;;;5.53;5.00;;;;;;;9.88;63.73;95417.63;5012701;28;20053;-78
2022/04/23 07:15:03;;;;;;;6.90;4.82;;;;;;;9.90;63.72;95426.03;5012862;28;20061;-80
2022/04/23 07:17:31;;;;;;;6.80;5.15;;;;;;;9.92;63.80;95432.84;5011407;28;20050;-80
2022/04/23 07:19:58;;;;;;;8.27;5.53;;;;;;;9.88;63.84;95427.22;5012406;28;20069;-78
2022/04/23 07:22:26;;;;;;;5.35;4.85;;;;;;;9.87;63.68;95420.44;5012293;28;20538;-80
2022/04/23 07:24:55;;;;;;;9.15;5.63;;;;;;;9.88;64.01;95420.25;5011858;28;20546;-80
2022/04/23 07:27:23;;;;;;;5.82;5.30;;;;;;;9.93;63.72;95421.41;5011496;28;20053;-80
2022/04/23 07:29:51;;;;;;;6.38;5.05;;;;;;;9.96;63.86;95421.00;5012142;28;20061;-80
2022/04/23 07:32:20;;;;;;;5.97;4.70;;;;;;;9.96;63.59;95418.41;5012452;28;20061;-80
2022/04/23 07:37:33;;;;;;;5.50;4.90;;;;;;;9.98;63.45;95406.75;5014732;28;20085;-80
2022/04/23 07:40:05;;;;;;;5.63;4.90;;;;;;;9.97;63.47;95412.16;5015598;28;20053;-80
2022/04/23 07:42:33;;;;;;;4.60;4.15;;;;;;;10.01;63.52;95411.53;5015271;28;20060;-80
2022/04/23 07:45:01;;;;;;;5.75;4.93;;;;;;;10.03;63.35;95409.53;5016306;28;20056;-79
2022/04/23 07:47:29;;;;;;;4.43;4.03;;;;;;;10.10;63.38;95412.94;5014533;28;20065;-82
2022/04/23 07:49:58;;;;;;;6.53;5.05;;;;;;;10.21;63.03;95411.47;5016932;28;20065;-81
2022/04/23 07:52:26;;;;;;;7.32;4.68;;;;;;;10.31;63.08;95400.63;5129272;22;20025;-80
2022/04/23 07:54:53;;;;;;;6.78;4.82;;;;;;;10.40;62.84;95422.81;5035957;28;20049;-76
2022/04/23 07:57:24;;;;;;;6.38;5.05;;;;;;;10.45;62.23;95412.56;5034863;28;20500;-76
2022/04/23 07:59:51;;;;;;;6.85;5.22;;;;;;;10.47;62.16;95401.91;5037551;28;20049;-82
2022/04/23 08:02:22;;;;;;;5.85;5.13;;;;;;;10.48;61.86;95417.38;5038222;28;20056;-80
2022/04/23 08:04:50;;;;;;;7.75;5.07;;;;;;;10.46;61.93;95405.56;5040318;28;20476;-78
2022/04/23 08:07:19;;;;;;;5.00;4.45;;;;;;;10.42;62.06;95409.59;5041143;28;20057;-79
2022/04/23 08:09:47;;;;;;;6.40;5.13;;;;;;;10.44;62.07;95410.16;5041989;28;20049;-79
2022/04/23 08:12:16;;;;;;;5.93;5.05;;;;;;;10.51;62.14;95403.09;5032390;28;20527;-78
2022/04/23 08:14:45;;;;;;;5.40;4.90;;;;;;;10.54;61.84;95407.91;5022996;28;20542;-77
2022/04/23 08:17:12;;;;;;;6.05;4.82;;;;;;;10.55;61.82;95395.66;5026020;28;20052;-77
2022/04/23 08:19:40;;;;;;;6.80;5.07;;;;;;;10.55;61.85;95400.88;5034711;28;20049;-77
2022/04/23 08:22:08;;;;;;;6.82;5.30;;;;;;;10.54;61.84;95401.88;5017704;28;20492;-77
2022/04/23 08:24:36;;;;;;;13.90;6.22;;;;;;;10.55;61.67;95406.88;5029766;28;20045;-77
2022/04/23 08:27:04;;;;;;;8.50;5.82;;;;;;;10.61;61.78;95411.25;5033352;28;20446;-77
2022/04/23 08:32:19;;;;;;;7.88;5.15;;;;;;;10.59;61.49;95410.69;5015751;28;20050;-79
2022/04/23 08:34:46;;;;;;;10.43;6.80;;;;;;;10.60;61.52;95412.25;5030438;28;20049;-79
2022/04/23 08:37:14;;;;;;;7.80;5.18;;;;;;;10.59;61.27;95413.28;5033618;28;20063;-78
2022/04/23 08:39:42;;;;;;;5.97;5.13;;;;;;;10.59;61.43;95412.50;5034147;28;20055;-79
2022/04/23 08:42:11;;;;;;;6.35;5.15;;;;;;;10.60;61.43;95409.66;5035170;28;20060;-80
2022/04/23 08:44:40;;;;;;;7.47;5.22;;;;;;;10.62;61.40;95412.84;5033978;28;20145;-80
2022/04/23 08:47:09;;;;;;;6.35;5.63;;;;;;;10.65;61.24;95415.06;5033096;28;20137;-79
2022/04/23 08:49:41;;;;;;;6.22;5.03;;;;;;;10.70;61.23;95425.66;5034104;28;20049;-78
2022/04/23 08:52:16;;;;;;;10.13;5.38;;;;;;;10.77;61.17;95424.81;5034062;28;20060;-79
2022/04/23 08:54:44;;;;;;;6.85;5.20;;;;;;;10.80;60.98;95416.53;5033895;28;20095;-79
2022/04/23 08:57:12;;;;;;;10.15;6.43;;;;;;;10.82;60.92;95414.53;5032884;28;20056;-79
2022/04/23 08:59:40;;;;;;;7.25;5.35;;;;;;;10.88;60.76;95411.06;5034003;28;20068;-79
2022/04/23 09:02:13;;;;;;;6.80;5.47;;;;;;;10.92;60.99;95414.84;5035308;28;20487;-79
2022/04/23 09:04:45;;;;;;;6.72;5.75;;;;;;;10.97;60.87;95415.00;5035431;28;20132;-81
2022/04/23 09:07:20;;;;;;;9.88;6.85;;;;;;;10.98;60.66;95410.63;5034643;28;20049;-79
2022/04/23 09:09:49;;;;;;;10.73;6.25;;;;;;;11.01;60.47;95407.56;5038812;28;20101;-80
2022/04/23 09:12:17;;;;;;;7.70;6.85;;;;;;;11.03;60.25;95402.94;5035295;28;20526;-81
2022/04/23 09:15:08;;;;;;;7.80;5.80;;;;;;;11.03;60.58;95413.38;5034868;28;20056;-80
2022/04/23 09:23:43;;;;;;;7.32;6.40;;;;;;;11.14;60.14;95404.84;5038338;28;20514;-79
2022/04/23 09:26:17;;;;;;;8.27;6.40;;;;;;;11.12;60.15;95407.66;5056538;28;20060;-79
2022/04/23 09:28:46;;;;;;;7.63;5.70;;;;;;;11.14;60.29;95405.63;5035186;28;20049;-79
2022/04/23 09:31:15;;;;;;;10.85;6.38;;;;;;;11.20;59.92;95411.03;5034450;28;20045;-81
2022/04/23 09:33:46;;;;;;;7.95;6.30;;;;;;;11.21;59.88;95410.78;5034820;28;20072;-78
2022/04/23 09:36:15;;;;;;;7.40;6.18;;;;;;;11.24;59.90;95414.78;5032601;28;20495;-79
2022/04/23 09:38:42;;;;;;;8.73;5.60;;;;;;;11.23;59.91;95419.22;5033426;28;20491;-79
2022/04/23 09:41:20;;;;;;;8.27;6.15;;;;;;;11.20;59.83;95403.19;5033414;28;20045;-78
2022/04/23 09:43:49;;;;;;;6.43;5.75;;;;;;;11.23;59.73;95407.97;5033319;28;20120;-80
2022/04/23 09:46:17;;;;;;;6.10;5.50;;;;;;;11.27;59.85;95406.53;5032213;28;20050;-78
2022/04/23 09:48:45;;;;;;;8.95;5.80;;;;;;;11.33;59.63;95410.91;5033181;28;20041;-78
2022/04/23 09:51:26;;;;;;;6.57;5.72;;;;;;;11.37;59.70;95406.84;5033135;28;20079;-82
2022/04/23 09:53:54;;;;;;;8.10;5.85;;;;;;;11.46;59.70;95402.94;5032575;28;20061;-77
2022/04/23 09:56:24;;;;;;;6.80;6.10;;;;;;;11.58;59.45;95397.00;5031906;28;20136;-78
2022/04/23 09:58:51;;;;;;;6.53;5.72;;;;;;;11.70;59.20;95403.09;5032565;28;20049;-77
2022/04/23 10:01:20;;;;;;;8.15;6.05;;;;;;;11.78;58.93;95409.84;5032089;28;20049;-77
2022/04/23 10:03:50;;;;;;;7.05;6.20;;;;;;;11.82;58.32;95405.78;5027616;28;20136;-77
2022/04/23 10:06:20;;;;;;;6.15;5.55;;;;;;;11.81;59.00;95404.97;5026188;28;20041;-78
2022/04/23 10:08:51;;;;;;;7.05;6.10;;;;;;;11.84;58.73;95407.16;5024655;28;20492;-78
2022/04/23 10:11:24;;;;;;;7.10;6.20;;;;;;;11.89;58.53;95409.13;5032190;28;20095;-77
2022/04/23 10:13:54;;;;;;;6.60;5.78;;;;;;;11.94;58.33;95406.69;5032104;28;20056;-78
2022/04/23 10:16:22;;;;;;;11.07;6.55;;;;;;;11.97;58.17;95408.84;5031744;28;20422;-77
2022/04/23 10:18:50;;;;;;;7.05;6.28;;;;;;;11.97;57.99;95402.81;5032281;28;20640;-77
2022/04/23 10:21:25;;;;;;;7.40;6.68;;;;;;;11.99;58.47;95401.59;5032372;28;20522;-78
2022/04/23 10:24:05;;;;;;;6.93;6.22;;;;;;;12.07;58.22;95397.84;5031796;28;20053;-79
2022/04/23 10:26:46;;;;;;;6.90;6.20;;;;;;;12.12;57.64;95405.84;5032122;28;20054;-78
2022/04/23 10:29:15;;;;;;;9.38;7.20;;;;;;;12.12;57.69;95401.41;5012530;28;20501;-78
2022/04/23 10:31:44;;;;;;;9.20;7.15;;;;;;;12.11;57.75;95402.44;5012281;28;20459;-78
2022/04/23 10:34:31;;;;;;;9.50;8.05;;;;;;;12.14;57.66;95403.81;5032201;28;20045;-78
2022/04/23 10:37:14;;;;;;;9.07;7.60;;;;;;;12.14;57.73;95398.59;5030841;28;20057;-78
2022/04/23 10:39:43;;;;;;;9.35;7.68;;;;;;;12.15;57.56;95397.56;5029588;28;20064;-78
2022/04/23 10:42:15;;;;;;;7.45;6.65;;;;;;;12.19;57.51;95400.53;5032505;28;20056;-78
2022/04/23 10:44:43;;;;;;;9.57;8.57;;;;;;;12.21;57.56;95394.06;5032531;28;20575;-78
2022/04/23 10:47:12;;;;;;;9.27;7.88;;;;;;;12.26;57.50;95391.56;5031239;28;20037;-78
2022/04/23 10:49:39;;;;;;;8.82;7.93;;;;;;;12.32;57.81;95388.06;5032398;28;20045;-78
2022/04/23 10:52:07;;;;;;;8.93;7.70;;;;;;;12.39;57.34;95379.34;5031949;28;20136;-77
2022/04/23 10:54:58;;;;;;;9.13;8.23;;;;;;;12.46;57.41;95393.94;5051646;22;20049;-78
2022/04/23 10:57:26;;;;;;;9.85;8.63;;;;;;;12.51;56.94;95385.41;5032874;28;20049;-78
2022/04/23 10:59:53;;;;;;;10.98;8.30;;;;;;;12.55;56.83;95386.53;5032733;28;20519;-77
2022/04/23 11:02:32;;;;;;;11.50;9.27;;;;;;;12.57;56.73;95387.94;5039914;28;20515;-79
2022/04/23 11:13:28;;;;;;;9.60;8.52;;;;;;;12.91;55.80;95374.34;5036565;28;20514;-76
2022/04/23 11:16:23;;;;;;;8.18;7.38;;;;;;;12.97;55.68;95381.31;5034109;28;20050;-79
2022/04/23 11:18:52;;;;;;;9.77;8.77;;;;;;;12.98;55.68;95373.19;5041723;28;20171;-79
2022/04/23 11:21:23;;;;;;;9.35;8.30;;;;;;;13.03;55.69;95371.72;5033794;28;20056;-78
2022/04/23 11:23:52;;;;;;;10.13;7.90;;;;;;;13.07;55.61;95371.03;5033829;28;20057;-78
2022/04/23 11:26:26;;;;;;;11.43;8.82;;;;;;;13.13;55.67;95375.38;5032855;28;20427;-78
2022/04/23 11:28:58;;;;;;;11.30;9.55;;;;;;;13.18;55.00;95375.50;5033844;28;20050;-78
2022/04/23 11:31:27;;;;;;;11.32;9.38;;;;;;;13.14;54.87;95370.94;5033587;28;20057;-78
2022/04/23 11:33:57;;;;;;;10.93;9.13;;;;;;;13.05;55.17;95377.53;5033245;28;20622;-78
2022/04/23 11:36:27;;;;;;;10.50;9.40;;;;;;;12.97;55.41;95370.81;5034149;28;20045;-78
2022/04/23 11:38:55;;;;;;;10.65;9.18;;;;;;;12.93;55.20;95374.91;5034955;28;20518;-79
2022/04/23 11:41:28;;;;;;;10.10;9.10;;;;;;;12.91;55.70;95363.88;5035454;28;20046;-77
2022/04/23 11:43:56;;;;;;;14.30;9.23;;;;;;;12.96;55.89;95363.97;5036236;28;20534;-78
2022/04/23 11:46:24;;;;;;;12.98;9.98;;;;;;;13.00;55.46;95367.75;5032313;28;20384;-79
2022/04/23 11:48:52;;;;;;;11.02;9.45;;;;;;;13.03;55.46;95376.97;5035521;28;20041;-79
2022/04/23 11:51:21;;;;;;;10.52;9.43;;;;;;;13.04;55.42;95371.50;5035587;28;20050;-79
2022/04/23 11:53:52;;;;;;;11.63;10.52;;;;;;;13.02;55.07;95367.53;5035535;28;20530;-78
2022/04/23 11:56:25;;;;;;;12.15;10.57;;;;;;;12.95;55.44;95367.63;5017951;28;20054;-79
2022/04/23 11:58:56;;;;;;;12.07;9.93;;;;;;;12.94;55.84;95356.38;5033608;28;20053;-79
2022/04/23 12:01:25;;;;;;;13.35;10.73;;;;;;;13.00;55.80;95365.13;5034753;28;20410;-78